Time;durP1;ratioP1;P1;durP2;ratioP2;P2;SDS_P1;SDS_P2;PMS_P1;PMS_P2;Temp;Humidity;BMP_temperature;BMP_pressure;BME280_temperature;BME280_humidity;BME280_pressure;Samples;Min_cycle;Max_cycle;Signal;HPM_P1;HPM_P2
2022/08/19 00:01:47;;;;;;;25.60;20.80;;;;;;;23.32;100.00;100061.79;1731541;81;21097;-71
2022/08/19 00:04:17;;;;;;;26.40;21.95;;;;;;;23.31;100.00;100060.63;1735704;81;21038;-71
2022/08/19 00:06:46;;;;;;;25.80;21.07;;;;;;;23.25;100.00;100063.41;1737943;82;21125;-71
2022/08/19 00:09:17;;;;;;;29.12;22.13;;;;;;;23.15;100.00;100071.41;1736181;82;21013;-71
2022/08/19 00:11:46;;;;;;;34.13;22.75;;;;;;;23.06;100.00;100074.20;1724978;82;21009;-71
2022/08/19 00:14:16;;;;;;;27.20;21.90;;;;;;;23.03;100.00;100068.75;1731093;82;21061;-71
2022/08/19 00:16:47;;;;;;;28.55;22.17;;;;;;;23.00;100.00;100064.63;1725663;82;21037;-71
2022/08/19 00:19:15;;;;;;;30.43;20.88;;;;;;;23.03;100.00;100064.00;1727411;82;21044;-71
2022/08/19 00:21:43;;;;;;;26.52;20.72;;;;;;;23.04;100.00;100072.22;1717346;82;21068;-71
2022/08/19 00:24:14;;;;;;;24.90;20.55;;;;;;;23.03;100.00;100074.00;1709340;82;21081;-71
2022/08/19 00:26:44;;;;;;;27.10;20.68;;;;;;;23.05;100.00;100076.48;1714464;82;21145;-71
2022/08/19 00:29:16;;;;;;;26.55;20.82;;;;;;;23.03;100.00;100081.06;1720159;82;21577;-71
2022/08/19 00:31:44;;;;;;;25.30;20.20;;;;;;;23.05;100.00;100085.17;1721889;82;21493;-71
2022/08/19 00:34:13;;;;;;;25.90;19.98;;;;;;;23.05;100.00;100082.55;1729135;82;21508;-71
2022/08/19 00:36:43;;;;;;;24.45;19.87;;;;;;;23.08;100.00;100080.11;1728668;82;21152;-71
2022/08/19 00:39:13;;;;;;;21.90;18.98;;;;;;;23.02;100.00;100075.00;1738876;82;21074;-72
2022/08/19 00:41:41;;;;;;;25.77;19.57;;;;;;;22.96;100.00;100069.05;1738762;82;21033;-71
2022/08/19 00:44:19;;;;;;;21.95;19.40;;;;;;;22.87;100.00;100069.52;1725017;82;21068;-72
2022/08/19 00:46:49;;;;;;;26.60;21.12;;;;;;;22.84;100.00;100063.25;1743557;82;21076;-71
2022/08/19 00:49:24;;;;;;;26.87;21.52;;;;;;;22.71;100.00;100075.52;1716783;82;21029;-71
2022/08/19 00:52:04;;;;;;;27.55;21.60;;;;;;;22.59;100.00;100068.39;1717615;82;21108;-71
2022/08/19 00:54:32;;;;;;;28.05;21.45;;;;;;;22.58;100.00;100070.67;1720844;82;21065;-71
2022/08/19 00:57:02;;;;;;;27.82;21.95;;;;;;;22.65;100.00;100070.05;1731064;82;21083;-71
2022/08/19 00:59:30;;;;;;;27.13;21.85;;;;;;;22.71;100.00;100078.59;1729972;82;21076;-71
2022/08/19 01:01:57;;;;;;;28.05;22.67;;;;;;;22.76;100.00;100072.41;1729244;82;21057;-71
2022/08/19 01:04:24;;;;;;;28.98;23.25;;;;;;;22.67;100.00;100075.95;1734501;82;21008;-71
2022/08/19 01:06:51;;;;;;;29.65;23.60;;;;;;;22.72;100.00;100077.63;1720761;82;21076;-70
2022/08/19 01:09:18;;;;;;;28.83;23.35;;;;;;;22.71;100.00;100073.35;1735164;82;21022;-71
2022/08/19 01:11:47;;;;;;;31.40;25.05;;;;;;;22.79;100.00;100076.05;1737516;82;21017;-71
2022/08/19 01:14:16;;;;;;;28.62;24.32;;;;;;;22.77;100.00;100076.69;1745602;82;21073;-71
2022/08/19 01:16:46;;;;;;;33.10;25.62;;;;;;;22.80;100.00;100073.23;1734547;82;21556;-71
2022/08/19 01:19:31;;;;;;;30.52;24.98;;;;;;;22.88;100.00;100062.45;1728486;82;21037;-71
2022/08/19 01:22:06;;;;;;;28.42;24.25;;;;;;;22.93;100.00;100063.63;1719566;82;21054;-71
2022/08/19 01:24:33;;;;;;;29.80;22.65;;;;;;;23.00;100.00;100063.80;1714487;82;21073;-71
2022/08/19 01:27:04;;;;;;;30.08;22.48;;;;;;;22.90;100.00;100062.62;1723213;82;21516;-70
2022/08/19 01:29:32;;;;;;;26.95;21.20;;;;;;;22.91;100.00;100064.28;1733201;82;21093;-70
2022/08/19 01:32:01;;;;;;;26.45;22.20;;;;;;;22.98;100.00;100074.45;1732995;82;21549;-68
2022/08/19 01:34:28;;;;;;;27.67;21.27;;;;;;;22.99;100.00;100064.30;1722013;82;21136;-70
2022/08/19 01:36:55;;;;;;;25.90;20.88;;;;;;;22.95;100.00;100064.76;1714020;82;21053;-70
2022/08/19 01:39:25;;;;;;;28.25;21.20;;;;;;;23.03;100.00;100066.63;1727910;81;21116;-70
2022/08/19 01:41:54;;;;;;;30.68;22.32;;;;;;;22.99;100.00;100059.52;1707632;82;21132;-70
2022/08/19 01:44:23;;;;;;;29.23;20.97;;;;;;;22.97;100.00;100062.80;1734820;82;21061;-70
2022/08/19 01:46:52;;;;;;;27.20;21.85;;;;;;;22.93;100.00;100060.16;1733191;82;21559;-71
2022/08/19 01:49:22;;;;;;;25.52;21.35;;;;;;;22.93;100.00;100061.00;1739438;81;21045;-69
2022/08/19 01:51:50;;;;;;;29.50;21.95;;;;;;;22.96;100.00;100065.11;1742385;82;21033;-70
2022/08/19 01:54:20;;;;;;;27.20;20.72;;;;;;;22.95;100.00;100061.67;1739646;82;21465;-70
2022/08/19 01:56:47;;;;;;;26.82;21.77;;;;;;;23.04;100.00;100061.23;1723793;82;21006;-71
2022/08/19 01:59:36;;;;;;;28.60;22.50;;;;;;;23.14;100.00;100069.78;1730422;82;21037;-70
2022/08/19 02:02:18;;;;;;;;;;;;;;;;;;;;;
2022/08/19 02:05:01;;;;;;;28.52;21.80;;;;;;;23.32;100.00;100076.23;1725039;82;21121;-70
2022/08/19 02:07:29;;;;;;;26.48;22.13;;;;;;;23.33;100.00;100073.92;1732222;82;21029;-70
2022/08/19 02:10:12;;;;;;;26.20;20.88;;;;;;;23.36;100.00;100084.63;1743263;81;21497;-71
2022/08/19 02:12:41;;;;;;;24.15;20.65;;;;;;;23.36;100.00;100084.13;1724939;82;21074;-72
2022/08/19 02:15:09;;;;;;;29.57;20.90;;;;;;;23.44;100.00;100080.70;1739694;82;21166;-72
2022/08/19 02:17:38;;;;;;;25.90;21.10;;;;;;;23.35;100.00;100082.96;1737210;82;21548;-72
2022/08/19 02:23:20;;;;;;;25.77;21.02;;;;;;;23.25;100.00;100086.22;1679325;85;21088;-72
2022/08/19 02:25:49;;;;;;;26.45;20.70;;;;;;;23.19;100.00;100082.42;1678401;85;21127;-71
2022/08/19 02:28:16;;;;;;;27.37;21.40;;;;;;;23.15;100.00;100075.85;1678719;85;21048;-71
2022/08/19 02:30:44;;;;;;;29.12;21.23;;;;;;;23.06;100.00;100082.08;1678372;85;21072;-71
2022/08/19 02:33:11;;;;;;;30.85;20.82;;;;;;;23.11;100.00;100087.16;1678646;85;21020;-71
2022/08/19 02:38:44;;;;;;;26.80;21.50;;;;;;;23.13;100.00;100077.81;1678268;85;21569;-71
2022/08/19 02:41:36;;;;;;;24.82;21.27;;;;;;;23.09;100.00;100077.80;1637995;86;21068;-71
2022/08/19 02:44:05;;;;;;;28.92;20.70;;;;;;;23.09;100.00;100078.62;1637400;88;21146;-70
2022/08/19 02:46:33;;;;;;;25.52;20.50;;;;;;;23.11;100.00;100075.84;1637757;86;21071;-70
2022/08/19 02:49:05;;;;;;;27.95;21.85;;;;;;;23.14;100.00;100072.41;1637258;88;21087;-70
2022/08/19 02:51:56;;;;;;;28.38;22.02;;;;;;;23.19;100.00;100078.48;1633600;88;21063;-70
2022/08/19 02:54:23;;;;;;;28.30;21.10;;;;;;;23.24;100.00;100078.03;1661578;84;21031;-70
2022/08/19 02:56:54;;;;;;;24.75;21.10;;;;;;;23.25;100.00;100081.78;1672961;84;21178;-71
2022/08/19 02:59:22;;;;;;;31.12;20.95;;;;;;;23.42;100.00;100090.55;1687509;84;21110;-71
2022/08/19 03:01:50;;;;;;;27.65;21.07;;;;;;;23.52;100.00;100089.91;1688483;84;21126;-71
2022/08/19 03:04:17;;;;;;;25.25;19.62;;;;;;;23.58;100.00;100088.41;1674336;84;21094;-72
2022/08/19 03:06:47;;;;;;;26.87;20.10;;;;;;;23.69;100.00;100093.36;1676480;84;21042;-72
2022/08/19 03:09:15;;;;;;;25.27;19.37;;;;;;;23.78;100.00;100099.47;1685170;84;21104;-73
2022/08/19 03:11:54;;;;;;;28.50;20.40;;;;;;;23.77;100.00;100103.09;1664164;84;21030;-72
2022/08/19 03:14:22;;;;;;;26.57;19.87;;;;;;;23.77;100.00;100102.59;1683724;84;21055;-72
2022/08/19 03:17:08;;;;;;;23.32;19.60;;;;;;;23.73;100.00;100106.50;1679352;83;21262;-71
2022/08/19 03:22:40;;;;;;;27.35;20.17;;;;;;;23.90;100.00;100101.28;1710917;82;21078;-70
2022/08/19 03:25:08;;;;;;;25.52;21.23;;;;;;;23.78;100.00;100096.37;1737587;82;21081;-70
2022/08/19 03:27:35;;;;;;;27.30;20.48;;;;;;;24.05;100.00;100101.44;1746961;82;21029;-70
2022/08/19 03:30:06;;;;;;;26.10;20.60;;;;;;;24.24;100.00;100100.28;1739446;81;21092;-71
2022/08/19 03:32:33;;;;;;;25.90;19.60;;;;;;;24.27;100.00;100103.88;1688288;84;21088;-70
2022/08/19 03:35:00;;;;;;;23.45;19.32;;;;;;;24.32;100.00;100105.53;1689230;84;21479;-68
2022/08/19 03:37:53;;;;;;;25.88;19.98;;;;;;;24.32;100.00;100107.66;1684876;84;21111;-69
2022/08/19 03:40:36;;;;;;;26.70;20.57;;;;;;;24.38;100.00;100117.52;1680382;84;21076;-70
2022/08/19 03:43:05;;;;;;;23.30;20.08;;;;;;;24.29;100.00;100114.59;1685898;84;21107;-68
2022/08/19 03:45:33;;;;;;;24.10;19.65;;;;;;;24.29;100.00;100116.38;1678932;84;21079;-69
2022/08/19 03:48:11;;;;;;;24.98;20.80;;;;;;;24.24;100.00;100112.13;1678498;84;21070;-69
2022/08/19 03:50:40;;;;;;;24.40;20.48;;;;;;;24.32;100.00;100113.42;1679425;85;21095;-69
2022/08/19 03:53:08;;;;;;;26.87;20.40;;;;;;;24.46;100.00;100121.95;1668714;84;21076;-68
2022/08/19 03:55:59;;;;;;;27.00;20.72;;;;;;;24.49;100.00;100122.09;1669500;84;21059;-69
2022/08/19 03:58:28;;;;;;;28.50;21.35;;;;;;;24.54;100.00;100121.96;1737303;81;21085;-68
2022/08/19 04:01:02;;;;;;;29.80;21.20;;;;;;;24.58;100.00;100122.45;1723943;82;21038;-69
2022/08/19 04:03:29;;;;;;;28.20;22.95;;;;;;;24.54;100.00;100127.73;1730051;82;21053;-69
2022/08/19 04:05:56;;;;;;;26.25;22.15;;;;;;;24.54;100.00;100124.59;1738602;82;21081;-67
2022/08/19 04:08:34;;;;;;;27.05;22.25;;;;;;;24.64;100.00;100134.12;1738729;82;21169;-68
2022/08/19 04:11:06;;;;;;;28.07;23.87;;;;;;;24.71;100.00;100131.13;1729731;82;21089;-67
2022/08/19 04:13:45;;;;;;;30.72;23.57;;;;;;;24.81;100.00;100126.48;1732250;82;21062;-67
2022/08/19 04:16:13;;;;;;;27.30;22.37;;;;;;;24.88;100.00;100131.41;1720464;82;21092;-70
2022/08/19 04:18:42;;;;;;;25.30;22.42;;;;;;;25.00;100.00;100123.97;1729277;82;21550;-70
2022/08/19 04:24:07;;;;;;;26.45;22.05;;;;;;;25.16;100.00;100119.95;1727586;82;21121;-70
2022/08/19 04:26:54;;;;;;;34.08;25.50;;;;;;;25.28;100.00;100112.98;1695466;82;21519;-70
2022/08/19 04:29:24;;;;;;;34.08;25.45;;;;;;;25.34;100.00;100115.74;1726541;82;21109;-70
2022/08/19 04:31:59;;;;;;;32.08;26.65;;;;;;;25.47;100.00;100111.74;1732368;82;21037;-70
2022/08/19 04:34:29;;;;;;;35.25;26.97;;;;;;;25.47;100.00;100118.33;1741385;81;21073;-71
2022/08/19 04:42:56;;;;;;;33.65;28.45;;;;;;;25.67;100.00;100123.47;1735400;82;21175;-69
2022/08/19 04:45:23;;;;;;;35.83;28.02;;;;;;;25.68;100.00;100127.73;1731747;82;21792;-68
2022/08/19 04:47:54;;;;;;;32.23;27.62;;;;;;;25.68;100.00;100127.73;1725148;82;21528;-68
2022/08/19 04:50:35;;;;;;;33.48;26.82;;;;;;;25.73;100.00;100128.03;1731115;82;21101;-67
2022/08/19 04:53:03;;;;;;;33.20;27.82;;;;;;;25.78;100.00;100127.50;1719222;82;21129;-68
2022/08/19 04:58:32;;;;;;;33.23;27.27;;;;;;;26.09;100.00;100137.98;1731521;82;21521;-69
2022/08/19 05:00:59;;;;;;;33.00;26.42;;;;;;;26.14;100.00;100139.61;1736248;82;21009;-69
2022/08/19 05:03:27;;;;;;;31.45;26.52;;;;;;;26.33;100.00;100142.73;1737109;82;21088;-67
2022/08/19 05:05:55;;;;;;;35.25;26.90;;;;;;;26.46;100.00;100138.14;1733771;82;21035;-67
2022/08/19 05:08:24;;;;;;;33.65;25.45;;;;;;;26.50;100.00;100142.91;1737149;82;21091;-68
2022/08/19 05:13:53;;;;;;;31.82;25.82;;;;;;;26.68;100.00;100152.31;1727119;82;21964;-68
2022/08/19 05:16:33;;;;;;;30.55;25.57;;;;;;;26.81;100.00;100156.47;1735762;82;21083;-68
2022/08/19 05:25:28;;;;;;;37.13;25.50;;;;;;;27.29;100.00;100174.57;1728779;82;21077;-68
2022/08/19 05:27:55;;;;;;;30.52;23.40;;;;;;;27.23;100.00;100177.47;1727922;82;21155;-67
2022/08/19 05:30:22;;;;;;;31.65;25.23;;;;;;;27.51;100.00;100178.08;1738672;82;21525;-68
2022/08/19 05:32:49;;;;;;;31.30;25.65;;;;;;;27.67;100.00;100180.49;1731608;82;21521;-68
2022/08/19 05:35:18;;;;;;;33.25;24.55;;;;;;;27.82;100.00;100175.65;1738570;82;21506;-68
2022/08/19 05:38:03;;;;;;;30.30;25.43;;;;;;;27.86;100.00;100183.04;1723888;82;21060;-70
2022/08/19 05:40:32;;;;;;;33.58;25.30;;;;;;;27.90;100.00;100186.98;1732451;82;21026;-68
2022/08/19 05:43:09;;;;;;;31.27;24.75;;;;;;;28.03;100.00;100186.27;1725329;82;21013;-68
2022/08/19 05:46:11;;;;;;;34.35;24.65;;;;;;;28.16;100.00;100187.72;1734787;82;21055;-68
2022/08/19 05:48:39;;;;;;;31.23;24.27;;;;;;;28.19;100.00;100191.81;1725130;82;21521;-67
2022/08/19 05:51:15;;;;;;;31.10;24.45;;;;;;;28.27;100.00;100190.34;1738324;82;21134;-68
2022/08/19 05:53:45;;;;;;;29.95;24.65;;;;;;;28.35;100.00;100188.89;1729406;82;21073;-68
2022/08/19 05:56:15;;;;;;;28.32;23.83;;;;;;;28.48;100.00;100191.31;1727268;82;21097;-66
2022/08/19 05:58:50;;;;;;;29.75;23.77;;;;;;;28.53;100.00;100193.73;1706503;82;21073;-68
2022/08/19 06:01:23;;;;;;;30.30;22.70;;;;;;;28.57;100.00;100199.48;1727902;82;21065;-68
2022/08/19 06:03:50;;;;;;;31.95;23.20;;;;;;;28.64;100.00;100193.70;1724817;83;21033;-68
2022/08/19 06:06:19;;;;;;;28.45;22.80;;;;;;;28.43;100.00;100191.91;1736169;82;21089;-68
2022/08/19 06:08:49;;;;;;;26.48;21.55;;;;;;;28.50;100.00;100197.27;1737674;82;21071;-68
2022/08/19 06:11:58;;;;;;;29.02;22.73;;;;;;;28.61;100.00;100193.27;1737604;82;21081;-68
2022/08/19 06:15:07;;;;;;;26.35;22.40;;;;;;;28.71;100.00;100189.77;1727208;82;21038;-68
2022/08/19 06:17:35;;;;;;;26.60;22.02;;;;;;;28.74;100.00;100190.20;1737650;82;21188;-67
2022/08/19 06:23:40;;;;;;;26.50;21.65;;;;;;;29.03;100.00;100194.94;1704273;83;21092;-68
2022/08/19 06:29:13;;;;;;;27.98;20.12;;;;;;;29.13;100.00;100202.56;1729454;82;21192;-68
2022/08/19 06:34:46;;;;;;;25.52;20.10;;;;;;;29.23;100.00;100201.70;1652175;85;21068;-68
2022/08/19 06:37:14;;;;;;;69.35;23.92;;;;;;;29.28;100.00;100213.02;1677357;84;21585;-68
2022/08/19 06:40:13;;;;;;;22.30;19.82;;;;;;;29.36;100.00;100215.53;1676300;84;21106;-68
2022/08/19 06:42:40;;;;;;;23.42;19.20;;;;;;;29.45;100.00;100218.82;1683900;85;21102;-68
2022/08/19 06:45:26;;;;;;;21.95;18.10;;;;;;;29.57;100.00;100223.86;1674665;85;21052;-68
2022/08/19 06:48:32;;;;;;;22.98;18.32;;;;;;;29.72;100.00;100227.70;1686542;84;21043;-68
2022/08/19 06:54:05;;;;;;;22.37;17.92;;;;;;;29.93;100.00;100225.41;1686992;84;21063;-69
2022/08/19 06:56:53;;;;;;;21.60;18.10;;;;;;;29.96;100.00;100219.17;1717433;82;21057;-68
2022/08/19 06:59:32;;;;;;;20.88;18.27;;;;;;;30.03;100.00;100215.70;1735096;82;21497;-68
2022/08/19 07:02:07;;;;;;;21.37;18.25;;;;;;;29.95;100.00;100213.57;1729994;82;21560;-68
2022/08/19 07:04:47;;;;;;;21.10;18.12;;;;;;;30.03;100.00;100209.07;1730515;82;21061;-68
2022/08/19 07:07:15;;;;;;;21.97;16.95;;;;;;;29.97;100.00;100214.70;1733645;82;21057;-68
2022/08/19 07:09:46;;;;;;;20.32;16.35;;;;;;;30.16;100.00;100223.17;1725353;82;21097;-68
2022/08/19 07:12:19;;;;;;;19.30;16.77;;;;;;;30.27;100.00;100220.94;1726220;81;21084;-68
2022/08/19 07:17:40;;;;;;;17.60;15.75;;;;;;;30.60;100.00;100220.97;1750077;82;20135;-68
2022/08/19 07:20:09;;;;;;;19.42;15.23;;;;;;;30.58;100.00;100226.16;1738735;81;21054;-68
2022/08/19 07:22:40;;;;;;;17.90;16.00;;;;;;;30.67;100.00;100227.59;1726111;82;21038;-69
2022/08/19 07:25:28;;;;;;;18.42;16.10;;;;;;;30.64;100.00;100222.19;1729183;82;21056;-69
2022/08/19 07:27:55;;;;;;;16.77;14.98;;;;;;;30.73;100.00;100228.91;1739607;81;21034;-69
2022/08/19 07:30:23;;;;;;;16.15;14.40;;;;;;;30.73;98.56;100220.13;1733260;82;21007;-68
2022/08/19 07:32:51;;;;;;;16.55;14.73;;;;;;;30.83;97.13;100222.36;1725432;82;21521;-69
2022/08/19 07:35:20;;;;;;;16.50;14.55;;;;;;;30.93;97.73;100221.44;1737549;82;21097;-68
2022/08/19 07:37:47;;;;;;;19.25;14.47;;;;;;;31.13;98.07;100220.06;1724298;82;21014;-69
2022/08/19 07:40:14;;;;;;;16.60;13.68;;;;;;;31.16;99.60;100228.92;1731273;82;21076;-68
2022/08/19 07:42:43;;;;;;;18.55;14.05;;;;;;;31.20;94.19;100227.48;1734279;82;21082;-69
2022/08/19 07:45:12;;;;;;;15.68;14.03;;;;;;;31.33;95.42;100227.97;1731422;82;21061;-69
2022/08/19 07:47:40;;;;;;;16.05;13.98;;;;;;;31.46;95.00;100236.42;1746422;82;21069;-69
2022/08/19 07:50:11;;;;;;;14.63;13.22;;;;;;;31.45;97.08;100229.45;1745517;82;21056;-68
2022/08/19 07:52:39;;;;;;;16.07;13.68;;;;;;;31.55;92.48;100236.49;1730627;82;22874;-69
2022/08/19 07:55:10;;;;;;;15.85;13.45;;;;;;;31.61;94.60;100234.31;1724681;82;21132;-69
2022/08/19 07:57:38;;;;;;;15.93;13.35;;;;;;;31.70;92.44;100227.70;1720710;82;21585;-69
2022/08/19 08:00:07;;;;;;;15.15;13.60;;;;;;;31.82;95.26;100222.52;1717988;82;21064;-69
2022/08/19 08:02:42;;;;;;;14.23;12.03;;;;;;;31.80;94.65;100223.24;1730649;82;21054;-68
2022/08/19 08:10:41;;;;;;;17.82;12.75;;;;;;;31.90;89.92;100226.77;1719105;82;21071;-69
2022/08/19 08:13:09;;;;;;;17.07;13.25;;;;;;;31.98;91.08;100220.37;1724576;82;21081;-69
2022/08/19 08:15:39;;;;;;;13.60;12.20;;;;;;;32.11;91.83;100221.62;1720475;82;21108;-69
2022/08/19 08:18:06;;;;;;;14.13;12.68;;;;;;;32.16;88.94;100217.81;1725416;82;21580;-68
2022/08/19 08:20:34;;;;;;;14.78;13.28;;;;;;;32.23;89.19;100225.22;1730463;82;21046;-68
2022/08/19 08:25:48;;;;;;;14.80;13.18;;;;;;;32.42;90.36;100231.42;1733337;81;21092;-68
2022/08/19 08:28:17;;;;;;;13.38;12.07;;;;;;;32.55;88.76;100234.52;1728016;82;21155;-68
2022/08/19 08:30:47;;;;;;;15.50;12.15;;;;;;;32.72;88.43;100231.56;1734888;82;21005;-68
2022/08/19 08:33:21;;;;;;;15.63;12.20;;;;;;;32.55;86.28;100241.70;1746529;81;21033;-68
2022/08/19 08:35:50;;;;;;;13.53;12.13;;;;;;;32.72;87.71;100238.75;1721722;82;21038;-68
2022/08/19 08:38:18;;;;;;;13.83;12.50;;;;;;;32.66;85.57;100234.30;1724344;82;21065;-68
2022/08/19 08:40:51;;;;;;;14.47;12.37;;;;;;;32.87;85.16;100230.41;1722926;82;21097;-69
2022/08/19 08:43:34;;;;;;;13.43;11.60;;;;;;;32.98;82.58;100235.52;1735012;82;21101;-68
2022/08/19 08:46:19;;;;;;;13.95;11.68;;;;;;;33.03;81.99;100231.16;1718367;81;21013;-68
2022/08/19 08:49:01;;;;;;;12.53;10.72;;;;;;;33.05;80.63;100230.41;1749528;81;21050;-69
2022/08/19 08:51:43;;;;;;;12.93;11.38;;;;;;;32.94;79.31;100231.14;1752104;81;21087;-68
2022/08/19 08:54:14;;;;;;;12.30;11.00;;;;;;;32.93;81.63;100237.00;1755777;80;21552;-68
2022/08/19 08:56:43;;;;;;;12.33;11.03;;;;;;;33.06;78.93;100230.70;1751899;81;21034;-69
2022/08/19 08:59:25;;;;;;;12.05;10.85;;;;;;;33.17;76.12;100229.16;1752622;80;21074;-69
2022/08/19 09:01:52;;;;;;;12.50;10.85;;;;;;;33.25;73.38;100227.52;1759568;80;21062;-69
2022/08/19 09:04:19;;;;;;;13.25;9.75;;;;;;;33.10;75.48;100227.10;1756633;80;21078;-68
2022/08/19 09:07:20;;;;;;;11.73;10.43;;;;;;;33.17;74.22;100228.34;1756519;81;21011;-69
2022/08/19 09:09:51;;;;;;;11.40;10.05;;;;;;;33.31;74.29;100227.14;1764694;81;21583;-69
2022/08/19 09:12:47;;;;;;;11.60;10.50;;;;;;;33.31;72.94;100223.98;1766390;81;21166;-69
2022/08/19 09:15:18;;;;;;;14.20;10.72;;;;;;;33.28;74.56;100226.27;1760449;81;21574;-69
2022/08/19 09:17:47;;;;;;;11.43;9.95;;;;;;;33.33;72.70;100227.73;1758352;80;21063;-69
2022/08/19 09:20:21;;;;;;;10.85;9.70;;;;;;;33.27;74.52;100229.47;1766928;81;21046;-69
2022/08/19 09:22:50;;;;;;;11.95;9.90;;;;;;;33.42;74.96;100223.73;1758522;81;21181;-69
2022/08/19 09:25:26;;;;;;;10.40;9.35;;;;;;;33.38;72.22;100225.22;1757190;81;20996;-68
2022/08/19 09:27:53;;;;;;;10.85;9.20;;;;;;;33.48;71.92;100223.36;1756134;81;21044;-69
2022/08/19 09:30:27;;;;;;;12.03;9.50;;;;;;;33.76;72.43;100230.80;1768712;80;21083;-69
2022/08/19 09:32:55;;;;;;;13.68;9.50;;;;;;;33.99;66.28;100224.70;1767944;80;21047;-69
2022/08/19 09:35:26;;;;;;;11.53;10.32;;;;;;;34.36;66.60;100222.39;1754263;81;21084;-69
2022/08/19 09:37:55;;;;;;;14.23;9.85;;;;;;;34.52;65.11;100227.04;1757066;81;21495;-69
2022/08/19 09:40:22;;;;;;;11.93;10.68;;;;;;;34.45;64.96;100225.83;1763685;80;21073;-69
2022/08/19 09:42:49;;;;;;;11.97;10.68;;;;;;;34.25;68.21;100226.16;1763102;80;21086;-69
2022/08/19 09:45:21;;;;;;;11.95;10.68;;;;;;;34.07;68.41;100221.69;1771164;80;21484;-69
2022/08/19 09:47:53;;;;;;;12.57;10.40;;;;;;;34.04;65.85;100228.81;1766098;80;21528;-69
2022/08/19 09:50:22;;;;;;;13.37;10.67;;;;;;;33.40;69.83;100219.67;1753633;81;21050;-69
2022/08/19 09:52:52;;;;;;;12.37;11.18;;;;;;;33.40;69.83;100219.67;1760727;80;21492;-69
2022/08/19 09:55:19;;;;;;;12.58;11.25;;;;;;;33.50;70.94;100226.61;1759348;80;21004;-69
2022/08/19 09:57:46;;;;;;;12.40;11.08;;;;;;;33.68;67.23;100227.09;1752877;80;21027;-69
2022/08/19 10:00:14;;;;;;;12.93;11.63;;;;;;;33.77;69.82;100227.08;1759499;81;21527;-69
2022/08/19 10:02:41;;;;;;;13.20;11.75;;;;;;;34.02;70.18;100229.56;1760042;80;21595;-69
2022/08/19 10:07:54;;;;;;;13.72;12.20;;;;;;;34.25;67.55;100220.82;1756102;81;21175;-68
2022/08/19 10:10:23;;;;;;;13.72;12.25;;;;;;;34.20;68.64;100228.70;1758020;81;21016;-69
2022/08/19 10:12:50;;;;;;;14.10;12.60;;;;;;;34.35;70.60;100224.76;1762326;80;21066;-69
2022/08/19 10:15:20;;;;;;;13.10;11.70;;;;;;;34.36;69.28;100227.73;1737741;81;21033;-69
2022/08/19 10:17:47;;;;;;;15.20;13.18;;;;;;;33.95;70.17;100225.39;1756689;80;21070;-69
2022/08/19 10:20:18;;;;;;;15.23;13.10;;;;;;;33.74;70.47;100227.55;1757604;81;21496;-69
2022/08/19 10:22:45;;;;;;;15.72;14.05;;;;;;;33.32;69.90;100236.27;1756990;80;21919;-69
2022/08/19 10:25:16;;;;;;;14.75;13.30;;;;;;;33.24;71.25;100235.23;1738675;81;21019;-69
2022/08/19 10:27:42;;;;;;;15.40;12.93;;;;;;;33.36;71.86;100225.97;1741405;82;21082;-69
2022/08/19 10:30:11;;;;;;;13.62;12.18;;;;;;;33.65;67.59;100228.89;1724710;82;21007;-68
2022/08/19 10:32:38;;;;;;;16.30;12.58;;;;;;;34.04;65.55;100230.15;1731860;82;21024;-68
2022/08/19 10:35:08;;;;;;;13.93;12.63;;;;;;;34.35;65.27;100216.24;1733624;82;21113;-69
2022/08/19 10:37:37;;;;;;;14.58;13.08;;;;;;;34.40;69.27;100220.35;1732714;82;21527;-68
2022/08/19 10:40:10;;;;;;;14.93;13.38;;;;;;;34.35;68.98;100213.57;1738920;82;21519;-68
2022/08/19 10:42:38;;;;;;;14.68;13.05;;;;;;;34.58;69.67;100215.95;1735413;82;21051;-69
2022/08/19 10:45:06;;;;;;;15.10;13.50;;;;;;;34.62;68.69;100223.78;1735386;82;21187;-68
2022/08/19 10:47:34;;;;;;;14.05;12.70;;;;;;;34.59;69.38;100221.06;1721720;82;21609;-68
2022/08/19 10:52:49;;;;;;;13.55;12.03;;;;;;;34.54;68.85;100212.11;1734022;82;21113;-69
2022/08/19 10:58:15;;;;;;;13.72;12.28;;;;;;;34.52;67.68;100211.81;1732485;82;21051;-69
2022/08/19 11:00:43;;;;;;;14.45;12.28;;;;;;;34.66;67.37;100211.08;1727374;82;21034;-68
2022/08/19 11:03:11;;;;;;;14.50;13.00;;;;;;;34.88;65.84;100211.81;1734743;82;21058;-69
2022/08/19 11:05:39;;;;;;;14.38;12.58;;;;;;;35.24;66.63;100210.70;1733554;82;21525;-69
2022/08/19 11:08:11;;;;;;;16.00;12.28;;;;;;;35.41;65.36;100204.05;1734805;82;21036;-69
2022/08/19 11:10:43;;;;;;;14.60;13.10;;;;;;;35.58;65.07;100200.06;1725252;82;21088;-69
2022/08/19 11:13:11;;;;;;;14.47;12.58;;;;;;;35.67;65.21;100187.95;1738779;82;21064;-69
2022/08/19 11:15:38;;;;;;;13.98;12.53;;;;;;;35.95;62.10;100186.27;1741885;82;21043;-69
2022/08/19 11:18:05;;;;;;;14.13;11.95;;;;;;;36.15;65.57;100206.41;1743458;82;21000;-69
2022/08/19 11:20:32;;;;;;;13.03;11.75;;;;;;;35.97;66.06;100202.08;1738126;82;21074;-69
2022/08/19 11:22:59;;;;;;;13.30;12.00;;;;;;;35.62;66.55;100201.73;1734243;82;21062;-68
2022/08/19 11:25:27;;;;;;;14.13;12.07;;;;;;;35.15;67.75;100196.56;1732873;82;21038;-69
2022/08/19 11:27:55;;;;;;;13.68;12.18;;;;;;;34.88;69.06;100195.23;1726710;82;21066;-69
2022/08/19 11:30:23;;;;;;;12.95;11.73;;;;;;;34.85;69.94;100189.01;1734577;82;21008;-68
2022/08/19 11:32:51;;;;;;;13.18;11.75;;;;;;;34.76;70.51;100181.08;1725672;82;21098;-69
2022/08/19 11:35:19;;;;;;;13.05;11.55;;;;;;;34.69;71.14;100189.73;1732620;80;21546;-69
2022/08/19 11:37:46;;;;;;;13.45;12.05;;;;;;;34.46;71.65;100203.91;1751669;81;21618;-69
2022/08/19 11:40:13;;;;;;;12.30;11.00;;;;;;;34.09;72.92;100207.58;1761258;80;21087;-69
2022/08/19 11:42:55;;;;;;;12.00;10.53;;;;;;;33.69;72.44;100202.84;1757933;80;21125;-68
2022/08/19 11:45:26;;;;;;;13.53;10.57;;;;;;;33.52;73.02;100190.64;1762191;80;21055;-69
2022/08/19 11:47:54;;;;;;;13.88;10.95;;;;;;;33.27;73.18;100197.95;1765561;80;21063;-69
2022/08/19 11:50:23;;;;;;;12.40;10.58;;;;;;;33.16;74.61;100199.53;1747700;81;21054;-69
2022/08/19 11:52:51;;;;;;;11.53;10.38;;;;;;;32.98;74.89;100195.52;1756728;80;21546;-68
2022/08/19 11:55:19;;;;;;;12.88;10.32;;;;;;;32.87;75.54;100196.56;1730032;81;21000;-68
2022/08/19 11:57:46;;;;;;;15.48;10.82;;;;;;;32.86;77.38;100192.78;1755392;80;21032;-68
2022/08/19 12:00:15;;;;;;;12.50;9.93;;;;;;;32.82;77.53;100197.73;1750336;81;21035;-68
2022/08/19 12:02:42;;;;;;;11.93;10.25;;;;;;;32.78;77.43;100198.41;1763546;80;21027;-67
2022/08/19 12:05:09;;;;;;;13.18;10.90;;;;;;;32.32;84.46;100191.12;1778424;80;21098;-68
2022/08/19 12:07:37;;;;;;;16.70;10.60;;;;;;;32.05;84.32;100183.88;1765231;80;21047;-68
2022/08/19 12:10:05;;;;;;;13.05;10.80;;;;;;;32.22;85.09;100182.31;1767778;80;21032;-68
2022/08/19 12:12:32;;;;;;;13.22;11.28;;;;;;;32.36;84.96;100177.66;1764701;80;21653;-68
2022/08/19 12:14:59;;;;;;;12.47;11.18;;;;;;;32.42;83.09;100174.64;1757969;80;20999;-68
2022/08/19 12:17:27;;;;;;;13.75;11.22;;;;;;;32.40;82.79;100175.38;1748723;80;21071;-68
2022/08/19 12:19:55;;;;;;;15.13;12.37;;;;;;;32.29;78.89;100189.72;1754243;81;21540;-68
2022/08/19 12:22:22;;;;;;;18.12;14.45;;;;;;;31.83;85.27;100190.05;1758800;80;21047;-68
2022/08/19 12:24:52;;;;;;;21.33;15.60;;;;;;;31.11;92.97;100197.66;1760220;80;21622;-68
2022/08/19 12:27:20;;;;;;;18.27;14.35;;;;;;;30.44;99.94;100200.95;1770811;80;21095;-67
2022/08/19 12:29:47;;;;;;;20.62;15.43;;;;;;;30.01;100.00;100201.82;1759086;80;21052;-68